• Join FlightAware (Why Join?)
  • Login
  • US Flag 
01:38AM EDT


 

Airport Tracker/Info


-or-


 

Live Flight TrackerFlight Track Log ✈ DAL6091 ✈ 03-May-2013 ✈ KRIC - KJFK

Flight Track Log - Related Links

Times and Time Zones

All times are in EDT time to prevent confusion due to time zone crossing. See the DAL6091 flight status page for this flight to view local times or setup timezone preferences in your user account.

Time Position Orientation Groundspeed Altitude Reporting Facility
EDT Latitude Longitude Course Direction KTS MPH feet Rate Location/Type
12:47PM 37.4500 -77.2500 45° Northeast 207 238 2,600  Level Potomac TRACON
12:48PM 37.4167 -77.2000 130° Southeast 237 273 3,900 1,380 Climbing Potomac TRACON
12:48PM 37.3994 -77.1786 135° Southeast 243 280 4,500 2,280 Climbing Washington Center
12:49PM 37.7916 -77.0084 38° Northeast  Level FlightAware Approximate
12:49PM 37.4233 -77.1058 68° East 229 264 7,200  Level Washington Center
12:50PM 37.8664 -76.9337 38° Northeast  Level FlightAware Approximate
12:50PM 37.4617 -77.0283 58° Northeast 259 298 9,000  Level Washington Center
12:51PM 37.9411 -76.8589 38° Northeast  Level FlightAware Approximate
12:51PM 37.5144 -76.9742 39° Northeast 254 292 9,000  Level Washington Center
12:52PM 38.0113 -76.7775 45° Northeast  Level FlightAware Approximate
12:52PM 37.5753 -76.9439 22° Northeast 246 283 9,700  Level Washington Center
12:53PM 37.6447 -76.9083 22° Northeast 252 290 11,300 1,440 Climbing Washington Center
12:54PM 37.7244 -76.8653 23° Northeast 281 323 12,700 1,320 Climbing Washington Center
12:55PM 37.8061 -76.8219 23° Northeast 304 350 14,000 1,320 Climbing Washington Center
12:56PM 37.8942 -76.7733 24° Northeast 319 367 15,400 1,260 Climbing Washington Center
12:57PM 37.9822 -76.7247 24° Northeast 331 381 16,600 780 Climbing Washington Center
12:58PM 38.0722 -76.6783 22° Northeast 342 394 17,000 180 Climbing Washington Center
12:59PM 38.1481 -76.5950 41° Northeast 342 394 17,000  Level Washington Center
01:00PM 38.2156 -76.4981 48° Northeast 347 399 17,000  Level Washington Center
01:01PM 38.2850 -76.4039 47° Northeast 354 407 17,000  Level Washington Center
01:02PM 38.3650 -76.3253 38° Northeast 349 402 17,000  Level Washington Center
01:03PM 38.4425 -76.2569 35° Northeast 354 407 17,000  Level Washington Center
01:04PM 38.5200 -76.1833 37° Northeast 344 396 17,000  Level Washington Center
01:05PM 38.6036 -76.1044 36° Northeast 349 402 17,000  Level Washington Center
01:06PM 38.6831 -76.0358 34° Northeast 349 402 17,000  Level Washington Center
01:07PM 38.7439 -75.9378 51° Northeast 344 396 17,000  Level Washington Center
01:08PM 38.7964 -75.8339 57° Northeast 344 396 17,000 -60 Level Washington Center
01:09PM 38.8506 -75.7331 55° Northeast 344 396 16,900 -60 Descending Washington Center
01:10PM 38.9050 -75.6289 56° Northeast 344 396 16,900  Level Washington Center
01:11PM 38.9592 -75.5250 56° Northeast 349 402 16,900  Level Washington Center
01:12PM 39.0175 -75.4206 54° Northeast 355 409 16,900  Level Washington Center
01:13PM 39.0714 -75.3136 57° Northeast 355 409 16,900  Level Washington Center
01:14PM 39.1294 -75.2089 54° Northeast 355 409 16,900  Level Washington Center
01:15PM 39.1811 -75.1042 58° Northeast 355 409 16,900  Level Washington Center
01:16PM 39.2369 -74.9994 55° Northeast 355 409 16,900  Level Washington Center
01:18PM 39.3444 -74.7922 56° Northeast 373 429 17,000  Climbing New York Center
01:19PM 39.4003 -74.6881 55° Northeast 357 411 17,000  Level New York Center
01:20PM 39.4517 -74.5833 58° Northeast 350 403 17,000  Level New York Center
01:21PM 39.5069 -74.4842 54° Northeast 345 397 17,000  Level New York Center
01:22PM 39.5622 -74.3819 55° Northeast 340 391 17,000  Level New York Center
01:23PM 39.6361 -74.2778 47° Northeast 345 397 17,000 -540 Level New York Center
01:24PM 39.7094 -74.1953 41° Northeast 346 398 16,000 -1,320 Descending New York Center
01:25PM 39.7847 -74.1178 38° Northeast 346 398 14,500 -1,620 Descending New York Center
01:26PM 39.8494 -74.0453 41° Northeast 341 392 12,900 -1,500 Descending New York Center
01:27PM 39.9342 -73.9897 27° Northeast 315 362 11,500 -960 Descending New York Center
01:28PM 40.0106 -73.9444 24° Northeast 298 343 11,000 -300 Descending New York Center
01:29PM 40.0889 -73.9019 23° Northeast 298 343 11,000 -360 Level New York Center
01:30PM 40.1567 -73.8589 26° Northeast 298 343 10,400 -1,320 Descending New York Center
01:31PM 40.2333 -73.8167 23° Northeast 267 307 8,600 -1,860 Descending New York TRACON
01:32PM 40.3000 -73.8167 360° North 268 308 6,800 -1,800 Descending New York TRACON
01:33PM 40.3500 -73.8833 315° West 262 302 4,900 -1,560 Descending New York TRACON
01:34PM 40.4167 -73.9333 330° Northwest 248 285 3,700 -960 Descending New York TRACON
01:35PM 40.4667 -73.9667 333° Northwest 208 239 3,000 -360 Descending New York TRACON
01:36PM 40.5167 -73.9667 360° North 186 214 3,000  Level New York TRACON